createdAt,value
2022-10-24T00:00:32.022Z,14.86
2022-10-24T00:01:31.922Z,14.85
2022-10-24T00:02:31.907Z,14.85
2022-10-24T00:03:31.863Z,14.87
2022-10-24T00:04:31.854Z,14.86
2022-10-24T00:05:31.847Z,14.85
2022-10-24T00:06:31.856Z,14.87
2022-10-24T00:07:31.826Z,14.83
2022-10-24T00:08:31.805Z,14.80
2022-10-24T00:09:31.792Z,14.79
2022-10-24T00:10:31.796Z,14.79
2022-10-24T00:11:31.805Z,14.75
2022-10-24T00:12:31.767Z,14.72
2022-10-24T00:13:31.726Z,14.69
2022-10-24T00:14:31.745Z,14.71
2022-10-24T00:15:31.723Z,14.72
2022-10-24T00:16:31.697Z,14.67
2022-10-24T00:17:31.739Z,14.67
2022-10-24T00:18:31.689Z,14.67
2022-10-24T00:19:31.668Z,14.64
2022-10-24T00:20:31.688Z,14.63
2022-10-24T00:21:31.641Z,14.61
2022-10-24T00:22:31.618Z,14.59
2022-10-24T00:23:31.705Z,14.56
2022-10-24T00:24:31.623Z,14.56
2022-10-24T00:25:31.582Z,14.54
2022-10-24T00:26:31.585Z,14.53
2022-10-24T00:27:31.562Z,14.49
2022-10-24T00:28:31.532Z,14.54
2022-10-24T00:29:32.322Z,14.53
2022-10-24T00:30:31.514Z,14.59
2022-10-24T00:31:31.544Z,14.57
2022-10-24T00:32:31.488Z,14.57
2022-10-24T00:33:31.473Z,14.54
2022-10-24T00:34:31.469Z,14.56
2022-10-24T00:35:31.498Z,14.54
2022-10-24T00:36:31.434Z,14.53
2022-10-24T00:37:31.424Z,14.48
2022-10-24T00:38:31.499Z,14.45
2022-10-24T00:39:31.397Z,14.42
2022-10-24T00:40:31.395Z,14.42
2022-10-24T00:41:31.385Z,14.39
2022-10-24T00:42:31.368Z,14.38
2022-10-24T00:43:31.380Z,14.38
2022-10-24T00:44:31.337Z,14.45
2022-10-24T00:45:31.383Z,14.45
2022-10-24T00:46:31.354Z,14.48
2022-10-24T00:47:31.303Z,14.46
2022-10-24T00:48:31.281Z,14.45
2022-10-24T00:49:31.272Z,14.45
2022-10-24T00:50:31.261Z,14.53
2022-10-24T00:51:31.241Z,14.53
2022-10-24T00:52:31.352Z,14.54
2022-10-24T00:53:31.221Z,14.61
2022-10-24T00:54:31.204Z,14.64
2022-10-24T00:55:31.218Z,14.69
2022-10-24T00:56:31.184Z,14.69
2022-10-24T00:57:31.177Z,14.72
2022-10-24T00:58:31.224Z,14.69
2022-10-24T00:59:31.153Z,14.71
2022-10-24T01:00:31.158Z,14.74
2022-10-24T01:01:31.153Z,14.78
2022-10-24T01:02:31.114Z,14.72
2022-10-24T01:03:31.092Z,14.69
2022-10-24T01:04:31.855Z,14.69
2022-10-24T01:05:31.067Z,14.67
2022-10-24T01:06:31.047Z,14.66
2022-10-24T01:07:31.037Z,14.61
2022-10-24T01:08:31.042Z,14.59
2022-10-24T01:09:31.016Z,14.54
2022-10-24T01:10:31.172Z,14.53
2022-10-24T01:11:30.992Z,14.46
2022-10-24T01:12:30.967Z,14.48
2022-10-24T01:13:30.999Z,14.52
2022-10-24T01:14:30.938Z,14.49
2022-10-24T01:15:30.941Z,14.45
2022-10-24T01:16:30.960Z,14.44
2022-10-24T01:17:30.935Z,14.41
2022-10-24T01:18:30.901Z,14.41
2022-10-24T01:19:30.881Z,14.42
2022-10-24T01:20:30.891Z,14.41
2022-10-24T01:21:30.881Z,14.41
2022-10-24T01:22:30.960Z,14.41
2022-10-24T01:23:30.897Z,14.39
2022-10-24T01:24:30.823Z,14.42
2022-10-24T01:25:30.836Z,14.52
2022-10-24T01:26:30.804Z,14.49
2022-10-24T01:27:30.786Z,14.46
2022-10-24T01:28:30.960Z,14.45
2022-10-24T01:29:30.755Z,14.44
2022-10-24T01:30:30.735Z,14.41
2022-10-24T01:31:30.749Z,14.35
2022-10-24T01:32:30.748Z,14.30
2022-10-24T01:33:30.706Z,14.26
2022-10-24T01:34:30.809Z,14.39
2022-10-24T01:36:30.701Z,14.42
2022-10-24T01:37:30.657Z,14.42
2022-10-24T01:38:31.597Z,14.41
2022-10-24T01:39:30.628Z,14.41
2022-10-24T01:40:30.653Z,14.39
2022-10-24T01:41:30.598Z,14.35
2022-10-24T01:42:30.579Z,14.34
2022-10-24T01:43:30.591Z,14.27
2022-10-24T01:44:30.560Z,14.26
2022-10-24T01:45:30.584Z,14.24
2022-10-24T01:46:30.639Z,14.26
2022-10-24T01:47:30.535Z,14.27
2022-10-24T01:48:30.501Z,14.27
2022-10-24T01:49:30.518Z,14.26
2022-10-24T01:50:30.482Z,14.23
2022-10-24T01:51:30.477Z,14.23
2022-10-24T01:52:30.535Z,14.21
2022-10-24T01:53:30.464Z,14.21
2022-10-24T01:54:30.432Z,14.19
2022-10-24T01:55:30.445Z,14.19
2022-10-24T01:56:30.416Z,14.21
2022-10-24T01:57:30.397Z,14.23
2022-10-24T01:58:30.484Z,14.23
2022-10-24T01:59:30.367Z,14.23
2022-10-24T02:00:31.470Z,14.29
2022-10-24T02:01:30.377Z,14.24
2022-10-24T02:02:30.325Z,14.24
2022-10-24T02:03:30.325Z,14.21
2022-10-24T02:04:30.423Z,14.24
2022-10-24T02:05:30.305Z,14.24
2022-10-24T02:06:30.279Z,14.19
2022-10-24T02:07:30.268Z,14.12
2022-10-24T02:08:30.262Z,14.11
2022-10-24T02:09:30.238Z,14.11
2022-10-24T02:10:30.337Z,14.06
2022-10-24T02:11:30.208Z,14.01
2022-10-24T02:12:30.217Z,13.98
2022-10-24T02:13:30.225Z,13.94
2022-10-24T02:14:30.185Z,13.99
2022-10-24T02:15:30.183Z,13.98
2022-10-24T02:16:30.211Z,13.94
2022-10-24T02:17:30.209Z,13.94
2022-10-24T02:18:30.131Z,13.94
2022-10-24T02:19:30.118Z,13.93
2022-10-24T02:20:30.120Z,13.88
2022-10-24T02:21:30.096Z,13.88
2022-10-24T02:22:30.182Z,13.93
2022-10-24T02:23:30.062Z,13.96
2022-10-24T02:24:30.043Z,13.98
2022-10-24T02:25:30.033Z,14.04
2022-10-24T02:26:30.064Z,14.05
2022-10-24T02:27:30.010Z,14.04
2022-10-24T02:28:30.043Z,14.02
2022-10-24T02:29:29.980Z,13.98
2022-10-24T02:30:29.965Z,13.93
2022-10-24T02:31:29.971Z,13.90
2022-10-24T02:32:29.945Z,13.94
2022-10-24T02:33:29.946Z,13.93
2022-10-24T02:34:29.930Z,13.91
2022-10-24T02:35:29.897Z,14.01
2022-10-24T02:36:30.301Z,14.02
2022-10-24T02:37:29.879Z,14.01
2022-10-24T02:38:29.879Z,14.01
2022-10-24T02:39:29.849Z,14.04
2022-10-24T02:40:29.958Z,14.04
2022-10-24T02:41:29.845Z,14.02
2022-10-24T02:43:29.830Z,14.04
2022-10-24T02:44:29.780Z,14.05
2022-10-24T02:45:29.778Z,14.05
2022-10-24T02:46:29.807Z,14.06
2022-10-24T02:47:29.763Z,14.05
2022-10-24T02:48:29.743Z,14.06
2022-10-24T02:49:29.723Z,14.09
2022-10-24T02:50:29.732Z,14.17
2022-10-24T02:51:29.692Z,14.17
2022-10-24T02:52:29.734Z,14.16
2022-10-24T02:53:29.684Z,14.19
2022-10-24T02:54:29.663Z,14.19
2022-10-24T02:55:29.645Z,14.17
2022-10-24T02:56:29.635Z,14.13
2022-10-24T02:57:29.616Z,14.11
2022-10-24T02:58:29.696Z,14.08
2022-10-24T02:59:29.610Z,14.05
2022-10-24T03:00:29.605Z,14.04
2022-10-24T03:01:29.631Z,14.04
2022-10-24T03:02:29.557Z,14.01
2022-10-24T03:03:29.558Z,14.04
2022-10-24T03:04:30.678Z,14.02
2022-10-24T03:05:29.532Z,13.98
2022-10-24T03:06:29.498Z,13.99
2022-10-24T03:08:29.471Z,14.04
2022-10-24T03:09:29.470Z,14.05
2022-10-24T03:10:29.489Z,14.05
2022-10-24T03:11:29.451Z,14.12
2022-10-24T03:12:29.432Z,14.13
2022-10-24T03:13:29.413Z,14.12
2022-10-24T03:14:29.392Z,14.13
2022-10-24T03:15:29.382Z,14.12
2022-10-24T03:16:29.473Z,14.17
2022-10-24T03:17:29.407Z,14.13
2022-10-24T03:18:29.350Z,14.11
2022-10-24T03:19:29.344Z,14.08
2022-10-24T03:20:29.349Z,14.04
2022-10-24T03:21:29.311Z,13.98
2022-10-24T03:22:30.596Z,13.94
2022-10-24T03:23:29.278Z,13.91
2022-10-24T03:24:43.432Z,13.93
2022-10-24T03:25:30.261Z,13.93
2022-10-24T03:26:29.255Z,13.94
2022-10-24T03:27:29.243Z,13.93
2022-10-24T03:28:29.241Z,13.94
2022-10-24T03:29:29.206Z,13.93
2022-10-24T03:30:30.167Z,13.90
2022-10-24T03:31:29.178Z,13.87
2022-10-24T03:32:29.182Z,13.86
2022-10-24T03:33:29.151Z,13.91
2022-10-24T03:34:29.256Z,13.94
2022-10-24T03:35:29.130Z,13.93
2022-10-24T03:36:29.114Z,13.98
2022-10-24T03:37:29.669Z,14.02
2022-10-24T03:38:29.079Z,14.06
2022-10-24T03:39:29.081Z,14.11
2022-10-24T03:40:29.667Z,14.11
2022-10-24T03:41:29.880Z,14.08
2022-10-24T03:42:29.042Z,14.11
2022-10-24T03:43:29.021Z,14.08
2022-10-24T03:44:29.012Z,14.04
2022-10-24T03:45:28.992Z,13.98
2022-10-24T03:46:29.016Z,13.94
2022-10-24T03:47:28.981Z,13.87
2022-10-24T03:48:29.681Z,13.83
2022-10-24T03:49:28.943Z,13.76
2022-10-24T03:50:28.932Z,13.69
2022-10-24T03:51:28.925Z,13.62
2022-10-24T03:52:29.006Z,13.59
2022-10-24T03:53:29.054Z,13.61
2022-10-24T03:54:29.155Z,13.59
2022-10-24T03:55:28.883Z,13.57
2022-10-24T03:56:28.857Z,13.57
2022-10-24T03:57:28.849Z,13.54
2022-10-24T03:58:29.485Z,13.53
2022-10-24T03:59:28.825Z,13.50
2022-10-24T04:00:28.819Z,13.48
2022-10-24T04:01:28.923Z,13.46
2022-10-24T04:02:28.831Z,13.41
2022-10-24T04:03:28.798Z,13.36
2022-10-24T04:04:28.869Z,13.32
2022-10-24T04:05:28.818Z,13.32
2022-10-24T04:06:31.341Z,13.32
2022-10-24T04:07:29.719Z,13.28
2022-10-24T04:08:29.659Z,13.32
2022-10-24T04:09:28.689Z,13.31
2022-10-24T04:10:29.010Z,13.28
2022-10-24T04:11:28.661Z,13.31
2022-10-24T04:12:28.652Z,13.32
2022-10-24T04:13:28.642Z,13.32
2022-10-24T04:14:28.623Z,13.28
2022-10-24T04:15:28.610Z,13.24
2022-10-24T04:16:29.177Z,13.22
2022-10-24T04:17:28.622Z,13.29
2022-10-24T04:18:28.584Z,13.31
2022-10-24T04:19:28.573Z,13.32
2022-10-24T04:20:28.664Z,13.29
2022-10-24T04:21:28.545Z,13.32
2022-10-24T04:22:28.575Z,13.32
2022-10-24T04:23:28.536Z,13.32
2022-10-24T04:24:28.955Z,13.32
2022-10-24T04:25:28.496Z,13.36
2022-10-24T04:26:28.492Z,13.38
2022-10-24T04:27:29.287Z,13.43
2022-10-24T04:28:29.298Z,13.55
2022-10-24T04:29:28.617Z,13.61
2022-10-24T04:30:28.444Z,13.62
2022-10-24T04:31:28.406Z,13.61
2022-10-24T04:32:28.484Z,13.62
2022-10-24T04:33:28.488Z,13.55
2022-10-24T04:34:28.370Z,13.50
2022-10-24T04:35:28.348Z,13.46
2022-10-24T04:36:28.349Z,13.48
2022-10-24T04:37:29.160Z,13.41
2022-10-24T04:38:33.192Z,13.39
2022-10-24T04:39:29.321Z,13.38
2022-10-24T04:40:28.292Z,13.35
2022-10-24T04:41:28.273Z,13.31
2022-10-24T04:42:28.354Z,13.31
2022-10-24T04:43:28.252Z,13.29
2022-10-24T04:44:28.250Z,13.28
2022-10-24T04:45:29.083Z,13.28
2022-10-24T04:46:28.224Z,13.29
2022-10-24T04:47:28.204Z,13.36
2022-10-24T04:48:29.022Z,13.38
2022-10-24T04:49:29.058Z,13.35
2022-10-24T04:50:28.205Z,13.29
2022-10-24T04:51:28.254Z,13.27
2022-10-24T04:52:28.793Z,13.29
2022-10-24T04:53:28.116Z,13.31
2022-10-24T04:54:28.120Z,13.41
2022-10-24T04:55:28.142Z,13.46
2022-10-24T04:56:28.088Z,13.54
2022-10-24T04:57:28.197Z,13.54
2022-10-24T04:58:28.119Z,13.53
2022-10-24T04:59:28.055Z,13.47
2022-10-24T05:00:28.115Z,13.44
2022-10-24T05:01:28.223Z,13.43
2022-10-24T05:02:28.145Z,13.39
2022-10-24T05:03:28.119Z,13.29
2022-10-24T05:04:28.112Z,13.29
2022-10-24T05:05:28.107Z,13.28
2022-10-24T05:06:28.010Z,13.25
2022-10-24T05:07:28.099Z,13.29
2022-10-24T05:08:27.941Z,13.39
2022-10-24T05:09:28.092Z,13.44
2022-10-24T05:10:28.092Z,13.44
2022-10-24T05:11:28.096Z,13.39
2022-10-24T05:12:27.896Z,13.41
2022-10-24T05:13:30.695Z,13.39
2022-10-24T05:14:29.720Z,13.39
2022-10-24T05:15:27.835Z,13.32
2022-10-24T05:16:27.835Z,13.27
2022-10-24T05:17:27.817Z,13.25
2022-10-24T05:18:27.795Z,13.19
2022-10-24T05:19:27.934Z,13.17
2022-10-24T05:20:28.188Z,13.13
2022-10-24T05:21:28.097Z,13.10
2022-10-24T05:22:28.004Z,13.06
2022-10-24T05:23:28.078Z,13.01
2022-10-24T05:24:28.027Z,12.98
2022-10-24T05:25:27.708Z,12.96
2022-10-24T05:26:27.741Z,12.92
2022-10-24T05:27:27.689Z,12.91
2022-10-24T05:28:27.669Z,12.92
2022-10-24T05:29:27.659Z,12.96
2022-10-24T05:30:27.649Z,12.99
2022-10-24T05:31:28.092Z,12.99
2022-10-24T05:32:27.642Z,13.03
2022-10-24T05:33:27.622Z,13.12
2022-10-24T05:34:27.610Z,13.19
2022-10-24T05:35:28.089Z,13.25
2022-10-24T05:36:28.071Z,13.36
2022-10-24T05:37:27.613Z,13.36
2022-10-24T05:38:28.072Z,13.48
2022-10-24T05:39:28.073Z,13.57
2022-10-24T05:40:27.822Z,13.59
2022-10-24T05:41:27.766Z,13.61
2022-10-24T05:42:27.494Z,13.61
2022-10-24T05:43:27.488Z,13.59
2022-10-24T05:44:28.073Z,13.61
2022-10-24T05:45:27.473Z,13.62
2022-10-24T05:46:27.435Z,13.66
2022-10-24T05:47:29.246Z,13.68
2022-10-24T05:48:27.428Z,13.68
2022-10-24T05:49:27.674Z,13.66
2022-10-24T05:50:27.706Z,13.63
2022-10-24T05:51:27.699Z,13.66
2022-10-24T05:52:27.686Z,13.68
2022-10-24T05:53:27.797Z,13.62
2022-10-24T05:54:33.407Z,13.59
2022-10-24T05:55:28.438Z,13.53
2022-10-24T05:56:27.868Z,13.48
2022-10-24T05:57:27.909Z,13.44
2022-10-24T05:58:27.358Z,13.46
2022-10-24T05:59:27.280Z,13.46
2022-10-24T06:00:27.264Z,13.46
2022-10-24T06:01:27.713Z,13.44
2022-10-24T06:02:27.353Z,13.44
2022-10-24T06:03:27.274Z,13.44
2022-10-24T06:04:27.243Z,13.44
2022-10-24T06:05:27.271Z,13.48
2022-10-24T06:06:27.924Z,13.62
2022-10-24T06:07:27.336Z,13.63
2022-10-24T06:08:27.350Z,13.66
2022-10-24T06:09:27.143Z,13.76
2022-10-24T06:10:27.334Z,13.84
2022-10-24T06:11:28.077Z,13.87
2022-10-24T06:12:27.251Z,13.91
2022-10-24T06:13:27.273Z,13.94
2022-10-24T06:14:27.167Z,13.96
2022-10-24T06:15:27.519Z,13.96
2022-10-24T06:16:27.647Z,13.96
2022-10-24T06:17:27.707Z,14.02
2022-10-24T06:18:27.627Z,14.05
2022-10-24T06:19:27.867Z,14.06
2022-10-24T06:20:27.025Z,14.12
2022-10-24T06:21:27.006Z,14.24
2022-10-24T06:22:27.198Z,14.30
2022-10-24T06:23:27.315Z,14.34
2022-10-24T06:24:26.968Z,14.41
2022-10-24T06:25:27.498Z,14.46
2022-10-24T06:26:27.297Z,14.49
2022-10-24T06:27:27.721Z,14.53
2022-10-24T06:28:27.727Z,14.59
2022-10-24T06:29:26.963Z,14.63
2022-10-24T06:30:27.548Z,14.67
2022-10-24T06:31:26.899Z,14.72
2022-10-24T06:32:26.850Z,14.75
2022-10-24T06:33:27.661Z,14.78
2022-10-24T06:34:27.124Z,14.83
2022-10-24T06:35:27.630Z,14.90
2022-10-24T06:36:29.438Z,14.95
2022-10-24T06:37:26.902Z,15.00
2022-10-24T06:38:26.771Z,15.03
2022-10-24T06:39:26.753Z,15.04
2022-10-24T06:40:26.823Z,15.09
2022-10-24T06:41:26.732Z,15.12
2022-10-24T06:42:26.795Z,15.15
2022-10-24T06:43:26.893Z,15.16
2022-10-24T06:44:26.793Z,15.16
2022-10-24T06:45:26.795Z,15.19
2022-10-24T06:46:26.805Z,15.22
2022-10-24T06:47:26.809Z,15.22
2022-10-24T06:48:26.803Z,15.28
2022-10-24T06:49:26.803Z,15.33
2022-10-24T06:50:26.886Z,15.33
2022-10-24T06:51:26.721Z,15.34
2022-10-24T06:52:26.818Z,15.40
2022-10-24T06:53:26.733Z,15.48
2022-10-24T06:54:29.402Z,15.52
2022-10-24T06:55:27.621Z,15.56
2022-10-24T06:56:27.124Z,15.62
2022-10-24T06:57:27.111Z,15.66
2022-10-24T06:58:26.748Z,15.67
2022-10-24T06:59:26.843Z,15.73
2022-10-24T07:01:27.313Z,15.81
2022-10-24T07:02:26.755Z,15.85
2022-10-24T07:03:26.846Z,15.88
2022-10-24T07:04:27.071Z,15.89
2022-10-24T07:05:27.082Z,15.91
2022-10-24T07:06:26.437Z,15.95
2022-10-24T07:07:26.861Z,15.99
2022-10-24T07:08:26.825Z,16.04
2022-10-24T07:09:26.375Z,16.07
2022-10-24T07:10:27.074Z,16.14
2022-10-24T07:11:26.367Z,16.22
2022-10-24T07:12:26.357Z,16.25
2022-10-24T07:13:26.347Z,16.25
2022-10-24T07:14:26.350Z,16.26
2022-10-24T07:15:26.303Z,16.26
2022-10-24T07:16:26.392Z,16.29
2022-10-24T07:17:26.299Z,16.29
2022-10-24T07:18:26.338Z,16.32
2022-10-24T07:19:26.576Z,16.32
2022-10-24T07:20:26.350Z,16.33
2022-10-24T07:21:26.321Z,16.32
2022-10-24T07:22:28.266Z,16.33
2022-10-24T07:23:26.363Z,16.37
2022-10-24T07:24:26.328Z,16.40
2022-10-24T07:25:26.320Z,16.40
2022-10-24T07:26:26.291Z,16.42
2022-10-24T07:27:26.333Z,16.47
2022-10-24T07:28:26.342Z,16.48
2022-10-24T07:29:26.225Z,16.47
2022-10-24T07:30:26.174Z,16.51
2022-10-24T07:31:26.352Z,16.54
2022-10-24T07:32:26.343Z,16.54
2022-10-24T07:33:26.334Z,16.59
2022-10-24T07:34:26.144Z,16.63
2022-10-24T07:35:26.703Z,16.65
2022-10-24T07:36:26.809Z,16.62
2022-10-24T07:38:26.141Z,16.50
2022-10-24T07:39:26.003Z,16.47
2022-10-24T07:40:25.978Z,16.44
2022-10-24T07:41:25.968Z,16.41
2022-10-24T07:42:25.968Z,16.45
2022-10-24T07:43:26.000Z,16.50
2022-10-24T07:44:25.970Z,16.52
2022-10-24T07:45:25.968Z,16.57
2022-10-24T07:46:25.899Z,16.62
2022-10-24T07:47:25.889Z,16.63
2022-10-24T07:48:25.908Z,16.67
2022-10-24T07:49:29.051Z,16.70
2022-10-24T07:50:26.860Z,16.70
2022-10-24T07:51:25.985Z,16.73
2022-10-24T07:52:25.960Z,16.80
2022-10-24T07:53:25.959Z,16.81
2022-10-24T07:54:25.874Z,16.84
2022-10-24T07:55:26.841Z,16.90
2022-10-24T07:56:26.050Z,16.92
2022-10-24T07:57:25.865Z,16.95
2022-10-24T07:58:25.863Z,16.95
2022-10-24T07:59:41.237Z,16.98
2022-10-24T08:00:26.886Z,16.98
2022-10-24T08:01:25.931Z,16.99
2022-10-24T08:02:25.696Z,16.96
2022-10-24T08:03:25.826Z,16.99
2022-10-24T08:04:25.916Z,17.02
2022-10-24T08:05:25.945Z,17.02
2022-10-24T08:06:25.958Z,17.03
2022-10-24T08:07:25.952Z,17.05
2022-10-24T08:08:35.888Z,17.07
2022-10-24T08:09:26.677Z,17.06
2022-10-24T08:10:25.674Z,17.14
2022-10-24T08:11:25.938Z,17.15
2022-10-24T08:12:25.697Z,17.22
2022-10-24T08:13:25.810Z,17.25
2022-10-24T08:14:26.386Z,17.27
2022-10-24T08:15:25.568Z,17.32
2022-10-24T08:16:25.581Z,17.32
2022-10-24T08:17:25.601Z,17.36
2022-10-24T08:18:25.620Z,17.36
2022-10-24T08:20:25.602Z,17.32
2022-10-24T08:21:25.590Z,17.30
2022-10-24T08:22:25.701Z,17.33
2022-10-24T08:23:25.677Z,17.39
2022-10-24T08:24:25.745Z,17.43
2022-10-24T08:25:25.785Z,17.45
2022-10-24T08:26:25.509Z,17.47
2022-10-24T08:27:25.784Z,17.54
2022-10-24T08:28:25.525Z,17.57
2022-10-24T08:29:25.836Z,17.62
2022-10-24T08:30:25.520Z,17.63
2022-10-24T08:31:26.670Z,17.68
2022-10-24T08:32:25.547Z,17.73
2022-10-24T08:33:26.279Z,17.79
2022-10-24T08:34:25.919Z,17.80
2022-10-24T08:35:25.926Z,17.87
2022-10-24T08:36:25.360Z,17.96
2022-10-24T08:37:25.512Z,18.04
2022-10-24T08:38:25.929Z,18.10
2022-10-24T08:39:25.221Z,18.10
2022-10-24T08:40:25.213Z,18.16
2022-10-24T08:41:25.929Z,18.20
2022-10-24T08:42:25.650Z,18.14
2022-10-24T08:43:25.397Z,18.05
2022-10-24T08:44:25.541Z,18.01
2022-10-24T08:45:25.541Z,18.01
2022-10-24T08:46:25.793Z,17.99
2022-10-24T08:47:26.039Z,18.02
2022-10-24T08:48:25.691Z,18.09
2022-10-24T08:49:25.392Z,18.01
2022-10-24T08:50:25.596Z,17.91
2022-10-24T08:51:25.062Z,17.89
2022-10-24T08:52:25.064Z,17.84
2022-10-24T08:53:25.085Z,17.87
2022-10-24T08:54:25.917Z,17.86
2022-10-24T08:55:31.168Z,17.91
2022-10-24T08:56:26.356Z,17.95
2022-10-24T08:57:25.203Z,18.02
2022-10-24T08:58:25.199Z,18.01
2022-10-24T08:59:25.223Z,17.98
2022-10-24T09:00:25.243Z,17.95
2022-10-24T09:01:25.347Z,17.98
2022-10-24T09:02:25.074Z,17.95
2022-10-24T09:03:31.481Z,17.99
2022-10-24T09:04:25.901Z,18.05
2022-10-24T09:05:24.955Z,18.09
2022-10-24T09:06:25.383Z,18.10
2022-10-24T09:08:24.833Z,18.20
2022-10-24T09:09:25.044Z,18.29
2022-10-24T09:10:25.444Z,18.26
2022-10-24T09:11:25.465Z,18.17
2022-10-24T09:12:25.456Z,18.07
2022-10-24T09:13:24.895Z,18.02
2022-10-24T09:14:24.909Z,18.02
2022-10-24T09:15:25.066Z,18.05
2022-10-24T09:16:25.294Z,18.04
2022-10-24T09:17:25.459Z,18.02
2022-10-24T09:18:25.277Z,18.05
2022-10-24T09:19:24.895Z,18.09
2022-10-24T09:20:25.239Z,18.16
2022-10-24T09:21:24.799Z,18.29
2022-10-24T09:22:24.660Z,18.36
2022-10-24T09:23:25.090Z,18.42
2022-10-24T09:24:24.913Z,18.51
2022-10-24T09:25:24.612Z,18.47
2022-10-24T09:26:24.740Z,18.36
2022-10-24T09:27:24.705Z,18.32
2022-10-24T09:28:25.079Z,18.31
2022-10-24T09:29:24.583Z,18.16
2022-10-24T09:30:28.716Z,18.16
2022-10-24T09:31:25.892Z,18.13
2022-10-24T09:32:25.345Z,18.07
2022-10-24T09:33:24.523Z,18.02
2022-10-24T09:34:24.593Z,18.10
2022-10-24T09:35:24.944Z,18.20
2022-10-24T09:36:24.837Z,18.32
2022-10-24T09:37:24.946Z,18.36
2022-10-24T09:38:25.166Z,18.39
2022-10-24T09:39:24.437Z,18.53
2022-10-24T09:40:24.425Z,18.54
2022-10-24T09:41:24.449Z,18.54
2022-10-24T09:42:24.696Z,18.50
2022-10-24T09:43:24.456Z,18.47
2022-10-24T09:44:24.448Z,18.38
2022-10-24T09:45:24.358Z,18.35
2022-10-24T09:46:24.350Z,18.25
2022-10-24T09:47:24.332Z,18.35
2022-10-24T09:48:27.589Z,18.35
2022-10-24T09:49:25.449Z,18.36
2022-10-24T09:50:24.451Z,18.41
2022-10-24T09:51:24.280Z,18.50
2022-10-24T09:52:24.252Z,18.72
2022-10-24T09:53:24.273Z,18.83
2022-10-24T09:54:24.291Z,18.93
2022-10-24T09:55:24.302Z,18.94
2022-10-24T09:56:24.323Z,18.87
2022-10-24T09:57:25.802Z,18.87
2022-10-24T09:58:24.335Z,18.89
2022-10-24T09:59:25.137Z,18.91
2022-10-24T10:00:24.375Z,18.97
2022-10-24T10:01:24.434Z,18.97
2022-10-24T10:02:25.182Z,18.93
2022-10-24T10:03:24.494Z,18.87
2022-10-24T10:04:24.203Z,18.90
2022-10-24T10:05:24.449Z,18.78
2022-10-24T10:06:24.428Z,18.82
2022-10-24T10:07:24.465Z,18.78
2022-10-24T10:08:24.129Z,18.75
2022-10-24T10:09:24.468Z,18.71
2022-10-24T10:10:24.413Z,18.66
2022-10-24T10:11:24.468Z,18.74
2022-10-24T10:12:24.130Z,18.62
2022-10-24T10:13:24.463Z,18.60
2022-10-24T10:14:23.971Z,18.54
2022-10-24T10:15:24.352Z,18.49
2022-10-24T10:16:23.978Z,18.46
2022-10-24T10:17:23.945Z,18.49
2022-10-24T10:18:24.009Z,18.38
2022-10-24T10:19:23.973Z,18.39
2022-10-24T10:20:24.347Z,18.35
2022-10-24T10:21:24.843Z,18.31
2022-10-24T10:22:24.823Z,18.32
2022-10-24T10:23:23.864Z,18.34
2022-10-24T10:24:23.984Z,18.35
2022-10-24T10:25:23.837Z,18.38
2022-10-24T10:26:24.795Z,18.50
2022-10-24T10:27:23.835Z,18.51
2022-10-24T10:28:23.831Z,18.51
2022-10-24T10:29:23.833Z,18.57
2022-10-24T10:30:23.818Z,18.56
2022-10-24T10:31:23.767Z,18.62
2022-10-24T10:32:23.829Z,18.74
2022-10-24T10:33:24.739Z,18.82
2022-10-24T10:34:24.670Z,18.89
2022-10-24T10:35:23.807Z,18.94
2022-10-24T10:36:24.770Z,18.94
2022-10-24T10:37:23.839Z,18.90
2022-10-24T10:38:23.820Z,18.83
2022-10-24T10:39:23.841Z,18.69
2022-10-24T10:40:23.652Z,18.75
2022-10-24T10:41:23.631Z,18.84
2022-10-24T10:42:23.831Z,18.91
2022-10-24T10:43:23.844Z,18.93
2022-10-24T10:44:23.582Z,19.01
2022-10-24T10:45:23.831Z,19.10
2022-10-24T10:46:23.793Z,19.16
2022-10-24T10:47:26.690Z,19.10
2022-10-24T10:48:23.863Z,18.91
2022-10-24T10:49:23.546Z,18.66
2022-10-24T10:50:23.825Z,18.68
2022-10-24T10:51:23.815Z,18.65
2022-10-24T10:52:23.565Z,18.57
2022-10-24T10:53:23.576Z,18.53
2022-10-24T10:54:23.773Z,18.49
2022-10-24T10:55:23.819Z,18.57
2022-10-24T10:56:23.832Z,18.64
2022-10-24T10:57:26.544Z,18.68
2022-10-24T10:58:24.537Z,18.71
2022-10-24T10:59:25.787Z,18.74
2022-10-24T11:00:24.695Z,18.75
2022-10-24T11:01:23.592Z,18.68
2022-10-24T11:02:23.607Z,18.64
2022-10-24T11:03:23.519Z,18.62
2022-10-24T11:04:23.428Z,18.62
2022-10-24T11:05:23.346Z,18.56
2022-10-24T11:06:23.520Z,18.47
2022-10-24T11:07:23.530Z,18.56
2022-10-24T11:08:23.283Z,18.65
2022-10-24T11:09:23.301Z,18.74
2022-10-24T11:10:23.344Z,18.78
2022-10-24T11:11:23.393Z,18.82
2022-10-24T11:12:23.647Z,18.89
2022-10-24T11:13:23.483Z,18.94
2022-10-24T11:14:23.546Z,18.94
2022-10-24T11:15:23.643Z,18.91
2022-10-24T11:16:23.206Z,18.89
2022-10-24T11:17:23.184Z,18.78
2022-10-24T11:18:23.716Z,18.78
2022-10-24T11:19:23.194Z,18.75
2022-10-24T11:20:23.535Z,18.66
2022-10-24T11:21:23.790Z,18.66
2022-10-24T11:22:23.184Z,18.56
2022-10-24T11:23:23.247Z,18.51
2022-10-24T11:24:23.330Z,18.50
2022-10-24T11:25:23.061Z,18.47
2022-10-24T11:26:23.582Z,18.53
2022-10-24T11:27:23.039Z,18.49
2022-10-24T11:28:23.113Z,18.54
2022-10-24T11:29:23.250Z,18.65
2022-10-24T11:30:23.041Z,18.75
2022-10-24T11:31:23.010Z,18.83
2022-10-24T11:32:23.241Z,18.90
2022-10-24T11:33:23.353Z,19.12
2022-10-24T11:34:23.572Z,19.28
2022-10-24T11:35:23.568Z,19.32
2022-10-24T11:36:23.063Z,19.47
2022-10-24T11:37:22.904Z,19.49
2022-10-24T11:38:23.504Z,19.64
2022-10-24T11:39:23.076Z,19.61
2022-10-24T11:40:23.274Z,19.55
2022-10-24T11:41:23.016Z,19.57
2022-10-24T11:42:23.220Z,19.57
2022-10-24T11:43:23.195Z,19.55
2022-10-24T11:44:23.075Z,19.46
2022-10-24T11:45:22.811Z,19.52
2022-10-24T11:46:23.071Z,19.60
2022-10-24T11:47:23.107Z,19.62
2022-10-24T11:48:23.060Z,19.55
2022-10-24T11:49:23.088Z,19.50
2022-10-24T11:50:25.545Z,19.30
2022-10-24T11:51:22.998Z,19.12
2022-10-24T11:52:23.162Z,18.97
2022-10-24T11:53:22.709Z,18.86
2022-10-24T11:54:23.081Z,18.68
2022-10-24T11:55:22.721Z,18.56
2022-10-24T11:56:24.919Z,18.49
2022-10-24T11:57:22.834Z,18.38
2022-10-24T11:58:23.212Z,-19.38
2022-10-24T11:59:23.083Z,18.36
2022-10-24T12:00:22.650Z,18.34
2022-10-24T12:01:22.948Z,18.31
2022-10-24T12:02:22.632Z,18.28
2022-10-24T12:03:23.187Z,18.39
2022-10-24T12:04:22.928Z,18.50
2022-10-24T12:05:22.545Z,18.59
2022-10-24T12:06:22.932Z,18.64
2022-10-24T12:07:22.569Z,18.54
2022-10-24T12:08:22.579Z,18.44
2022-10-24T12:09:22.529Z,18.47
2022-10-24T12:10:22.721Z,18.49
2022-10-24T12:11:22.640Z,18.49
2022-10-24T12:12:22.670Z,18.42
2022-10-24T12:13:22.702Z,18.41
2022-10-24T12:14:22.603Z,18.42
2022-10-24T12:15:22.450Z,18.47
2022-10-24T12:16:22.553Z,18.47
2022-10-24T12:17:22.770Z,18.53
2022-10-24T12:18:22.775Z,18.56
2022-10-24T12:19:22.805Z,18.60
2022-10-24T12:20:22.828Z,18.60
2022-10-24T12:21:25.906Z,18.59
2022-10-24T12:22:22.802Z,18.54
2022-10-24T12:23:22.858Z,18.46
2022-10-24T12:24:22.465Z,18.46
2022-10-24T12:25:22.803Z,18.49
2022-10-24T12:26:22.526Z,18.54
2022-10-24T12:27:22.630Z,18.54
2022-10-24T12:28:22.947Z,18.53
2022-10-24T12:29:22.818Z,18.50
2022-10-24T12:30:22.898Z,18.44
2022-10-24T12:31:25.576Z,18.31
2022-10-24T12:32:23.008Z,18.23
2022-10-24T12:33:22.557Z,18.25
2022-10-24T12:34:23.085Z,18.19
2022-10-24T12:35:30.421Z,18.13
2022-10-24T12:36:23.392Z,18.04
2022-10-24T12:37:22.541Z,17.83
2022-10-24T12:38:22.181Z,17.73
2022-10-24T12:39:22.583Z,17.65
2022-10-24T12:40:22.143Z,17.42
2022-10-24T12:41:22.122Z,17.39
2022-10-24T12:42:22.294Z,17.38
2022-10-24T12:43:22.072Z,17.32
2022-10-24T12:44:22.256Z,17.27
2022-10-24T12:45:22.315Z,17.21
2022-10-24T12:46:23.269Z,17.10
2022-10-24T12:47:22.509Z,17.18
2022-10-24T12:48:22.137Z,17.25
2022-10-24T12:49:24.305Z,17.32
2022-10-24T12:50:22.092Z,17.32
2022-10-24T12:51:22.911Z,17.38
2022-10-24T12:52:21.939Z,17.39
2022-10-24T12:53:22.016Z,17.54
2022-10-24T12:54:22.061Z,17.46
2022-10-24T12:55:22.044Z,17.47
2022-10-24T12:56:21.899Z,17.53
2022-10-24T12:57:22.057Z,17.54
2022-10-24T12:58:22.088Z,17.45
2022-10-24T12:59:21.859Z,17.46